createdAt,value
2019-03-13T00:00:20.012Z,0.00
2019-03-13T00:01:23.585Z,0.00
2019-03-13T00:02:20.312Z,0.00
2019-03-13T00:03:18.059Z,0.00
2019-03-13T00:04:21.096Z,0.00
2019-03-13T00:05:22.562Z,0.00
2019-03-13T00:06:20.092Z,0.00
2019-03-13T00:07:18.818Z,0.00
2019-03-13T00:08:22.245Z,0.00
2019-03-13T00:09:24.497Z,0.00
2019-03-13T00:10:21.882Z,0.00
2019-03-13T00:11:22.426Z,0.00
2019-03-13T00:12:24.323Z,0.00
2019-03-13T00:13:21.850Z,0.00
2019-03-13T00:14:21.578Z,0.00
2019-03-13T00:15:21.477Z,0.00
2019-03-13T00:16:22.171Z,0.00
2019-03-13T00:17:23.953Z,0.00
2019-03-13T00:18:24.157Z,0.00
2019-03-13T00:19:25.686Z,0.00
2019-03-13T00:20:23.843Z,0.00
2019-03-13T00:21:43.369Z,0.00
2019-03-13T00:22:20.983Z,0.00
2019-03-13T00:23:24.006Z,0.00
2019-03-13T00:24:33.221Z,0.00
2019-03-13T00:25:44.858Z,0.00
2019-03-13T00:26:22.667Z,0.00
2019-03-13T00:27:24.592Z,0.00
2019-03-13T00:28:22.555Z,0.00
2019-03-13T00:29:25.332Z,0.00
2019-03-13T00:30:28.806Z,0.00
2019-03-13T00:31:25.900Z,0.00
2019-03-13T00:32:24.007Z,0.00
2019-03-13T00:33:25.269Z,0.00
2019-03-13T00:34:26.389Z,0.00
2019-03-13T00:35:40.762Z,0.00
2019-03-13T00:36:26.329Z,0.00
2019-03-13T00:37:36.075Z,0.00
2019-03-13T00:38:25.081Z,0.00
2019-03-13T00:39:24.601Z,0.00
2019-03-13T00:42:00.066Z,0.00
2019-03-13T00:42:58.690Z,0.00
2019-03-13T00:45:34.756Z,0.00
2019-03-13T00:46:31.257Z,0.00
2019-03-13T00:47:31.905Z,0.00
2019-03-13T00:48:43.834Z,0.00
2019-03-13T00:49:30.158Z,0.00
2019-03-13T00:50:56.780Z,0.00
2019-03-13T00:51:33.034Z,0.00
2019-03-13T00:52:31.347Z,0.00
2019-03-13T00:53:32.246Z,0.00
2019-03-13T00:54:33.175Z,0.00
2019-03-13T00:55:33.566Z,0.00
2019-03-13T00:56:29.391Z,0.00
2019-03-13T00:57:33.367Z,0.00
2019-03-13T00:58:32.691Z,0.00
2019-03-13T01:03:00.391Z,0.00
2019-03-13T01:03:49.011Z,0.00
2019-03-13T01:04:43.582Z,0.00
2019-03-13T01:05:44.099Z,0.00
2019-03-13T01:10:14.346Z,0.00
2019-03-13T01:15:47.613Z,0.00
2019-03-13T01:16:36.668Z,0.00
2019-03-13T01:17:43.258Z,0.00
2019-03-13T01:18:40.907Z,0.00
2019-03-13T01:21:33.043Z,0.00
2019-03-13T01:22:18.486Z,0.00
2019-03-13T01:23:20.378Z,0.00
2019-03-13T01:24:10.028Z,0.00
2019-03-13T01:32:46.440Z,0.00
2019-03-13T01:33:27.378Z,0.00
2019-03-13T01:34:25.541Z,0.00
2019-03-13T01:45:03.204Z,0.00
2019-03-13T01:45:51.109Z,0.00
2019-03-13T01:56:40.454Z,0.00
2019-03-13T01:57:33.834Z,0.00
2019-03-13T01:58:23.137Z,0.00
2019-03-13T02:18:17.004Z,0.00
2019-03-13T02:19:36.083Z,0.00
2019-03-13T02:20:13.053Z,0.00
2019-03-13T02:26:00.535Z,0.00
2019-03-13T02:28:50.190Z,0.00
2019-03-13T02:30:09.308Z,0.00
2019-03-13T02:30:46.804Z,0.00
2019-03-13T02:32:08.720Z,0.00
2019-03-13T02:32:56.997Z,0.00
2019-03-13T02:33:48.793Z,0.00
2019-03-13T02:35:03.804Z,0.00
2019-03-13T02:35:47.375Z,0.00
2019-03-13T02:36:49.943Z,0.00
2019-03-13T02:41:23.772Z,0.00
2019-03-13T02:42:19.614Z,0.00
2019-03-13T02:45:57.399Z,0.00
2019-03-13T02:46:57.385Z,0.00
2019-03-13T02:48:00.026Z,0.00
2019-03-13T02:48:57.707Z,0.00
2019-03-13T02:49:59.318Z,0.00
2019-03-13T02:51:17.857Z,0.00
2019-03-13T02:52:11.718Z,0.00
2019-03-13T02:52:58.418Z,0.00
2019-03-13T02:54:20.120Z,0.00
2019-03-13T02:55:09.076Z,0.00
2019-03-13T02:56:25.464Z,0.00
2019-03-13T03:03:47.473Z,0.00
2019-03-13T03:15:21.553Z,0.00
2019-03-13T03:19:09.507Z,0.00
2019-03-13T03:20:03.446Z,0.00
2019-03-13T03:21:02.935Z,0.00
2019-03-13T03:22:06.988Z,0.00
2019-03-13T03:23:28.094Z,0.00
2019-03-13T03:30:13.583Z,0.00
2019-03-13T03:30:45.650Z,0.00
2019-03-13T03:31:51.358Z,0.00
2019-03-13T03:36:59.959Z,0.00
2019-03-13T03:37:49.330Z,0.00
2019-03-13T03:46:37.371Z,0.00
2019-03-13T03:51:04.801Z,0.00
2019-03-13T03:51:32.236Z,0.00
2019-03-13T03:52:33.920Z,0.00
2019-03-13T03:55:36.638Z,0.00
2019-03-13T03:56:07.175Z,0.00
2019-03-13T03:57:04.151Z,0.00
2019-03-13T03:58:03.231Z,0.00
2019-03-13T03:59:04.979Z,0.00
2019-03-13T04:00:03.944Z,0.00
2019-03-13T04:01:34.170Z,0.00
2019-03-13T04:05:37.736Z,0.00
2019-03-13T04:09:16.773Z,0.00
2019-03-13T04:10:50.559Z,0.00
2019-03-13T04:16:03.015Z,0.00
2019-03-13T04:16:59.577Z,0.00
2019-03-13T04:17:38.477Z,0.00
2019-03-13T04:23:38.419Z,0.00
2019-03-13T04:24:16.022Z,0.00
2019-03-13T04:25:15.330Z,0.00
2019-03-13T04:26:48.883Z,0.00
2019-03-13T04:33:32.587Z,0.00
2019-03-13T04:43:48.197Z,0.00
2019-03-13T04:44:43.522Z,0.00
2019-03-13T04:46:00.629Z,0.00
2019-03-13T04:46:45.912Z,0.00
2019-03-13T04:48:02.067Z,0.00
2019-03-13T05:00:59.303Z,0.00
2019-03-13T05:01:55.627Z,0.00
2019-03-13T06:14:09.028Z,560.00
2019-03-13T06:16:46.512Z,380.00
2019-03-13T06:17:41.222Z,464.00
2019-03-13T06:18:41.011Z,536.00
2019-03-13T06:19:40.091Z,748.00
2019-03-13T06:20:40.080Z,864.00
2019-03-13T06:21:44.183Z,988.00
2019-03-13T06:22:40.389Z,636.00
2019-03-13T06:23:47.854Z,776.00
2019-03-13T06:28:21.309Z,1068.00
2019-03-13T06:29:08.429Z,1460.00
2019-03-13T06:33:03.603Z,1524.00
2019-03-13T06:34:03.254Z,1676.00
2019-03-13T06:47:30.526Z,1816.00
2019-03-13T06:48:13.032Z,2128.00
2019-03-13T06:58:56.005Z,2956.00
2019-03-13T06:59:53.523Z,2580.00
2019-03-13T07:20:02.849Z,3984.00
2019-03-13T07:31:17.857Z,5976.00
2019-03-13T07:32:12.950Z,4596.00
2019-03-13T07:34:55.961Z,5996.00
2019-03-13T07:36:07.110Z,5668.00
2019-03-13T07:36:31.572Z,7032.00
2019-03-13T07:38:04.549Z,5404.00
2019-03-13T07:41:25.594Z,8736.00
2019-03-13T07:42:21.743Z,6480.00
2019-03-13T08:00:55.193Z,4148.00
2019-03-13T08:01:26.359Z,3244.00
2019-03-13T08:16:23.163Z,4708.00
2019-03-13T08:34:07.028Z,3196.00
2019-03-13T08:34:52.266Z,4056.00
2019-03-13T08:35:50.457Z,5148.00
2019-03-13T08:36:52.537Z,6932.00
2019-03-13T08:37:52.505Z,7316.00
2019-03-13T08:38:50.920Z,6600.00
2019-03-13T08:39:51.457Z,5576.00
2019-03-13T08:40:51.528Z,5460.00
2019-03-13T08:41:51.649Z,6244.00
2019-03-13T08:42:51.829Z,7180.00
2019-03-13T08:43:51.898Z,6012.00
2019-03-13T08:44:59.822Z,5828.00
2019-03-13T08:45:54.610Z,5368.00
2019-03-13T08:46:52.787Z,4804.00
2019-03-13T08:48:01.123Z,4424.00
2019-03-13T08:48:55.295Z,4628.00
2019-03-13T08:49:52.868Z,4744.00
2019-03-13T08:50:58.256Z,5436.00
2019-03-13T08:51:55.825Z,7544.00
2019-03-13T08:56:18.135Z,5960.00
2019-03-13T08:57:00.566Z,4256.00
2019-03-13T08:58:00.500Z,3924.00
2019-03-13T09:00:51.737Z,3268.00
2019-03-13T09:01:39.124Z,3216.00
2019-03-13T09:05:42.989Z,6440.00
2019-03-13T09:07:04.545Z,6316.00
2019-03-13T09:07:55.456Z,8656.00
2019-03-13T09:09:03.801Z,7132.00
2019-03-13T09:09:43.677Z,5048.00
2019-03-13T09:10:44.566Z,4644.00
2019-03-13T09:11:42.548Z,4148.00
2019-03-13T09:12:40.848Z,3916.00
2019-03-13T09:13:42.036Z,4340.00
2019-03-13T09:14:43.651Z,5948.00
2019-03-13T09:15:43.497Z,6996.00
2019-03-13T09:17:08.599Z,6044.00
2019-03-13T09:17:47.401Z,6824.00
2019-03-13T09:18:50.935Z,7396.00
2019-03-13T09:19:44.665Z,5472.00
2019-03-13T09:20:47.127Z,8920.00
2019-03-13T09:22:19.938Z,9612.00
2019-03-13T09:22:43.004Z,8796.00
2019-03-13T09:23:43.542Z,4972.00
2019-03-13T09:24:46.158Z,7496.00
2019-03-13T09:25:44.381Z,9060.00
2019-03-13T09:26:42.923Z,8384.00
2019-03-13T09:27:44.993Z,10940.00
2019-03-13T09:28:46.350Z,9128.00
2019-03-13T09:29:45.419Z,7400.00
2019-03-13T09:30:43.734Z,8092.00
2019-03-13T09:31:49.644Z,12096.00
2019-03-13T09:32:46.091Z,9744.00
2019-03-13T09:33:51.687Z,9228.00
2019-03-13T09:34:44.314Z,12564.00
2019-03-13T09:35:44.824Z,13856.00
2019-03-13T09:36:50.845Z,11724.00
2019-03-13T09:37:46.704Z,13452.00
2019-03-13T09:38:46.693Z,14056.00
2019-03-13T09:39:46.823Z,15064.00
2019-03-13T09:40:52.142Z,15280.00
2019-03-13T09:41:49.476Z,12944.00
2019-03-13T09:42:47.173Z,13224.00
2019-03-13T09:43:48.077Z,10680.00
2019-03-13T09:44:47.814Z,12228.00
2019-03-13T09:45:45.870Z,13128.00
2019-03-13T09:46:46.010Z,14172.00
2019-03-13T09:47:46.094Z,13292.00
2019-03-13T09:48:46.441Z,12760.00
2019-03-13T09:49:47.133Z,11344.00
2019-03-13T09:50:46.957Z,11704.00
2019-03-13T09:51:47.763Z,13188.00
2019-03-13T09:52:47.255Z,12644.00
2019-03-13T09:53:47.358Z,15776.00
2019-03-13T09:54:47.403Z,14196.00
2019-03-13T09:55:47.604Z,9716.00
2019-03-13T09:56:49.682Z,11720.00
2019-03-13T09:57:47.650Z,13668.00
2019-03-13T09:58:48.234Z,9512.00
2019-03-13T09:59:52.644Z,4704.00
2019-03-13T10:00:51.036Z,4048.00
2019-03-13T10:04:52.782Z,9952.00
2019-03-13T10:05:52.694Z,10092.00
2019-03-13T10:06:52.967Z,13780.00
2019-03-13T10:07:53.393Z,9984.00
2019-03-13T10:08:53.122Z,8628.00
2019-03-13T10:09:59.175Z,8316.00
2019-03-13T10:10:53.462Z,7932.00
2019-03-13T10:11:53.563Z,7360.00
2019-03-13T10:12:53.751Z,38976.00
2019-03-13T10:13:54.001Z,9312.00
2019-03-13T10:14:54.254Z,10268.00
2019-03-13T10:15:54.153Z,11840.00
2019-03-13T10:16:54.654Z,9032.00
2019-03-13T10:17:54.541Z,6552.00
2019-03-13T10:18:54.646Z,4800.00
2019-03-13T10:19:55.111Z,4532.00
2019-03-13T10:20:55.170Z,3952.00
2019-03-13T10:21:59.409Z,4740.00
2019-03-13T10:22:58.769Z,6064.00
2019-03-13T10:23:56.810Z,4028.00
2019-03-13T10:24:59.273Z,2804.00
2019-03-13T10:25:56.998Z,2884.00
2019-03-13T10:26:57.560Z,3356.00
2019-03-13T10:29:32.928Z,2760.00
2019-03-13T10:30:29.946Z,3056.00
2019-03-13T10:31:28.647Z,3484.00
2019-03-13T10:32:34.705Z,3788.00
2019-03-13T10:33:30.455Z,3660.00
2019-03-13T10:34:30.881Z,2976.00
2019-03-13T10:35:44.947Z,3340.00
2019-03-13T10:36:45.048Z,3044.00
2019-03-13T10:37:33.379Z,3984.00
2019-03-13T10:38:31.396Z,3276.00
2019-03-13T10:39:29.835Z,3316.00
2019-03-13T10:40:29.707Z,3220.00
2019-03-13T10:41:30.257Z,4084.00
2019-03-13T10:42:30.410Z,2376.00
2019-03-13T10:43:30.347Z,2092.00
2019-03-13T10:44:30.599Z,2204.00
2019-03-13T10:45:31.039Z,2224.00
2019-03-13T10:46:30.812Z,2708.00
2019-03-13T10:47:31.273Z,3512.00
2019-03-13T10:48:31.399Z,4972.00
2019-03-13T10:49:31.195Z,5092.00
2019-03-13T10:50:31.291Z,4004.00
2019-03-13T10:51:31.840Z,2860.00
2019-03-13T10:52:31.618Z,2736.00
2019-03-13T10:53:31.907Z,2716.00
2019-03-13T10:54:32.037Z,2552.00
2019-03-13T10:55:32.347Z,2316.00
2019-03-13T10:56:32.657Z,2756.00
2019-03-13T10:57:32.661Z,2868.00
2019-03-13T10:58:32.962Z,2660.00
2019-03-13T10:59:33.255Z,2432.00
2019-03-13T11:00:33.551Z,2768.00
2019-03-13T11:01:38.982Z,2372.00
2019-03-13T11:04:08.599Z,2144.00
2019-03-13T11:05:08.208Z,1596.00
2019-03-13T11:07:41.809Z,1720.00
2019-03-13T11:08:44.334Z,1772.00
2019-03-13T11:09:41.965Z,1744.00
2019-03-13T11:16:53.786Z,3464.00
2019-03-13T11:18:20.865Z,3808.00
2019-03-13T11:18:51.794Z,4372.00
2019-03-13T11:32:16.306Z,5036.00
2019-03-13T11:33:06.968Z,5544.00
2019-03-13T11:34:06.972Z,3556.00
2019-03-13T11:35:08.436Z,2992.00
2019-03-13T11:36:08.261Z,3780.00
2019-03-13T11:37:10.324Z,3976.00
2019-03-13T11:38:07.937Z,3680.00
2019-03-13T11:39:09.978Z,3388.00
2019-03-13T11:40:08.074Z,3812.00
2019-03-13T11:41:08.233Z,4880.00
2019-03-13T11:42:12.680Z,4080.00
2019-03-13T11:43:08.644Z,2508.00
2019-03-13T11:44:09.118Z,2416.00
2019-03-13T11:45:08.802Z,3628.00
2019-03-13T11:46:11.095Z,4836.00
2019-03-13T11:47:09.200Z,4892.00
2019-03-13T11:48:12.920Z,3428.00
2019-03-13T11:49:14.643Z,3180.00
2019-03-13T11:50:12.164Z,5340.00
2019-03-13T11:51:10.016Z,5432.00
2019-03-13T11:52:14.553Z,4952.00
2019-03-13T11:53:25.875Z,5384.00
2019-03-13T11:54:12.141Z,6304.00
2019-03-13T11:55:16.945Z,5324.00
2019-03-13T11:56:14.668Z,5864.00
2019-03-13T11:57:14.799Z,5884.00
2019-03-13T11:58:11.333Z,4056.00
2019-03-13T11:59:11.221Z,3388.00
2019-03-13T12:00:11.186Z,3168.00
2019-03-13T12:01:17.169Z,2948.00
2019-03-13T12:02:27.559Z,3024.00
2019-03-13T12:03:17.493Z,3500.00
2019-03-13T12:04:15.694Z,2868.00
2019-03-13T12:05:17.096Z,2180.00
2019-03-13T12:08:23.810Z,2524.00
2019-03-13T12:08:49.199Z,2288.00
2019-03-13T12:11:42.074Z,2036.00
2019-03-13T12:12:20.211Z,2128.00
2019-03-13T12:13:23.181Z,2476.00
2019-03-13T12:14:19.535Z,3364.00
2019-03-13T12:15:16.913Z,2924.00
2019-03-13T12:16:18.760Z,2252.00
2019-03-13T12:17:18.881Z,2468.00
2019-03-13T12:18:19.996Z,4228.00
2019-03-13T12:19:20.097Z,5916.00
2019-03-13T12:20:19.477Z,6040.00
2019-03-13T12:21:19.668Z,5448.00
2019-03-13T12:22:26.455Z,4448.00
2019-03-13T12:23:34.016Z,4248.00
2019-03-13T12:24:19.917Z,5288.00
2019-03-13T12:25:22.187Z,6096.00
2019-03-13T12:26:22.680Z,6848.00
2019-03-13T12:27:24.351Z,7688.00
2019-03-13T12:37:55.826Z,6724.00
2019-03-13T12:38:45.008Z,7556.00
2019-03-13T12:39:44.871Z,7456.00
2019-03-13T12:40:44.901Z,13484.00
2019-03-13T12:41:43.633Z,6860.00
2019-03-13T12:42:43.620Z,5664.00
2019-03-13T12:43:43.698Z,6840.00
2019-03-13T12:44:43.909Z,11332.00
2019-03-13T12:45:44.119Z,6884.00
2019-03-13T12:46:44.387Z,5912.00
2019-03-13T12:47:44.850Z,6112.00
2019-03-13T12:48:45.698Z,5980.00
2019-03-13T12:49:44.776Z,5680.00
2019-03-13T12:50:44.931Z,5248.00
2019-03-13T12:51:45.448Z,5400.00
2019-03-13T12:52:47.945Z,5196.00
2019-03-13T12:53:51.547Z,4736.00
2019-03-13T12:55:02.226Z,3576.00
2019-03-13T13:04:38.803Z,2944.00
2019-03-13T13:06:01.786Z,3872.00
2019-03-13T13:07:02.161Z,3268.00
2019-03-13T13:08:03.230Z,3416.00
2019-03-13T13:09:02.266Z,3232.00
2019-03-13T13:10:02.674Z,3844.00
2019-03-13T13:11:02.485Z,3680.00
2019-03-13T13:12:03.398Z,2524.00
2019-03-13T13:13:02.853Z,2952.00
2019-03-13T13:14:03.227Z,3500.00
2019-03-13T13:15:03.234Z,2880.00
2019-03-13T13:16:03.243Z,3004.00
2019-03-13T13:17:03.344Z,3032.00
2019-03-13T13:18:03.894Z,2836.00
2019-03-13T13:19:03.840Z,3936.00
2019-03-13T13:20:03.860Z,5232.00
2019-03-13T13:21:04.390Z,4328.00
2019-03-13T13:22:04.126Z,3112.00
2019-03-13T13:23:04.239Z,4300.00
2019-03-13T13:24:04.347Z,4912.00
2019-03-13T13:25:04.427Z,5608.00
2019-03-13T13:26:04.640Z,4892.00
2019-03-13T13:27:05.840Z,4340.00
2019-03-13T13:28:05.070Z,5160.00
2019-03-13T13:29:05.253Z,5780.00
2019-03-13T13:30:05.610Z,4528.00
2019-03-13T13:31:05.531Z,2944.00
2019-03-13T13:32:05.709Z,3096.00
2019-03-13T13:33:05.792Z,3696.00
2019-03-13T13:34:05.979Z,4352.00
2019-03-13T13:35:06.134Z,4608.00
2019-03-13T13:36:06.409Z,5324.00
2019-03-13T13:37:06.646Z,4844.00
2019-03-13T13:38:09.977Z,2576.00
2019-03-13T13:39:07.338Z,2584.00
2019-03-13T13:40:07.133Z,2388.00
2019-03-13T13:41:07.848Z,1588.00
2019-03-13T13:42:07.404Z,1456.00
2019-03-13T13:43:07.517Z,1396.00
2019-03-13T13:44:08.278Z,1404.00
2019-03-13T13:45:08.244Z,1708.00
2019-03-13T13:46:08.116Z,1524.00
2019-03-13T13:47:08.144Z,1404.00
2019-03-13T13:48:08.760Z,1988.00
2019-03-13T13:49:08.442Z,2240.00
2019-03-13T13:50:08.555Z,2124.00
2019-03-13T13:51:09.128Z,1584.00
2019-03-13T13:52:08.945Z,1424.00
2019-03-13T13:53:09.007Z,2304.00
2019-03-13T13:54:09.248Z,2492.00
2019-03-13T13:55:09.338Z,3308.00
2019-03-13T13:56:09.613Z,2896.00
2019-03-13T13:57:10.289Z,2712.00
2019-03-13T13:58:10.024Z,2164.00
2019-03-13T13:59:10.019Z,2080.00
2019-03-13T14:00:10.155Z,1892.00
2019-03-13T14:01:10.461Z,1772.00
2019-03-13T14:02:10.578Z,2504.00
2019-03-13T14:03:10.985Z,2332.00
2019-03-13T14:04:11.256Z,2104.00
2019-03-13T14:05:11.088Z,1888.00
2019-03-13T14:06:11.131Z,1940.00
2019-03-13T14:07:11.260Z,1884.00
2019-03-13T14:08:11.535Z,2144.00
2019-03-13T14:09:11.599Z,1712.00
2019-03-13T14:10:11.934Z,2084.00
2019-03-13T14:11:12.264Z,2156.00
2019-03-13T14:12:12.178Z,2464.00
2019-03-13T14:13:12.339Z,2148.00
2019-03-13T14:14:13.267Z,2040.00
2019-03-13T14:15:12.645Z,1600.00
2019-03-13T14:16:12.919Z,2300.00
2019-03-13T14:17:12.970Z,2252.00
2019-03-13T14:18:13.192Z,2684.00
2019-03-13T14:19:13.343Z,3036.00
2019-03-13T14:20:13.407Z,2876.00
2019-03-13T14:21:14.002Z,2532.00
2019-03-13T14:22:13.727Z,3084.00
2019-03-13T14:23:13.906Z,3380.00
2019-03-13T14:24:17.019Z,3432.00
2019-03-13T14:25:14.277Z,3972.00
2019-03-13T14:26:15.004Z,4424.00
2019-03-13T14:27:15.249Z,4924.00
2019-03-13T14:28:15.224Z,5204.00
2019-03-13T14:29:14.890Z,5020.00
2019-03-13T14:30:14.973Z,4472.00
2019-03-13T14:31:15.148Z,4072.00
2019-03-13T14:32:15.301Z,3656.00
2019-03-13T14:33:15.492Z,4456.00
2019-03-13T14:34:15.519Z,4192.00
2019-03-13T14:35:16.246Z,3804.00
2019-03-13T14:36:15.999Z,3236.00
2019-03-13T14:37:16.271Z,3036.00
2019-03-13T14:38:16.130Z,3200.00
2019-03-13T14:39:16.292Z,3288.00
2019-03-13T14:40:16.810Z,3104.00
2019-03-13T14:41:16.758Z,2716.00
2019-03-13T14:42:16.936Z,2376.00
2019-03-13T14:43:17.277Z,2684.00
2019-03-13T14:44:17.128Z,2720.00
2019-03-13T14:45:17.283Z,2420.00
2019-03-13T14:46:17.466Z,2176.00
2019-03-13T14:47:17.841Z,2148.00
2019-03-13T14:48:18.078Z,1984.00
2019-03-13T14:49:18.303Z,1428.00
2019-03-13T14:50:18.319Z,1264.00
2019-03-13T14:51:18.290Z,1208.00
2019-03-13T14:52:18.595Z,1016.00
2019-03-13T14:53:18.728Z,908.00
2019-03-13T14:54:19.256Z,820.00
2019-03-13T14:55:19.195Z,712.00
2019-03-13T14:56:19.761Z,576.00
2019-03-13T14:57:20.044Z,736.00
2019-03-13T14:58:19.854Z,732.00
2019-03-13T14:59:19.704Z,736.00
2019-03-13T15:00:20.810Z,892.00
2019-03-13T15:01:20.153Z,916.00
2019-03-13T15:02:20.250Z,1152.00
2019-03-13T15:03:20.599Z,1416.00
2019-03-13T15:04:20.507Z,1732.00
2019-03-13T15:05:21.029Z,1656.00
2019-03-13T15:06:20.925Z,1744.00
2019-03-13T15:07:21.437Z,1652.00
2019-03-13T15:08:21.181Z,1952.00
2019-03-13T15:09:22.315Z,1744.00
2019-03-13T15:10:21.512Z,1684.00
2019-03-13T15:11:21.710Z,1928.00
2019-03-13T15:12:21.863Z,1852.00
2019-03-13T15:13:22.564Z,1544.00
2019-03-13T15:14:23.515Z,1900.00
2019-03-13T15:15:22.833Z,1612.00
2019-03-13T15:16:22.663Z,1652.00
2019-03-13T15:17:22.726Z,1284.00
2019-03-13T15:18:22.923Z,1040.00
2019-03-13T15:19:24.315Z,1036.00
2019-03-13T15:20:23.279Z,1184.00
2019-03-13T15:21:25.446Z,1360.00
2019-03-13T15:22:24.362Z,1328.00
2019-03-13T15:23:23.765Z,1092.00
2019-03-13T15:24:24.211Z,1140.00
2019-03-13T15:25:25.106Z,1264.00
2019-03-13T15:26:26.884Z,1208.00
2019-03-13T15:27:25.108Z,1120.00
2019-03-13T15:28:24.915Z,1048.00
2019-03-13T15:29:25.087Z,1300.00
2019-03-13T15:30:25.147Z,1120.00
2019-03-13T15:31:25.134Z,1236.00
2019-03-13T15:32:25.353Z,1476.00
2019-03-13T15:33:25.438Z,1400.00
2019-03-13T15:34:25.522Z,1256.00
2019-03-13T15:35:25.694Z,1056.00
2019-03-13T15:36:25.845Z,956.00
2019-03-13T15:37:26.084Z,844.00
2019-03-13T15:38:26.187Z,740.00
2019-03-13T15:39:28.321Z,820.00
2019-03-13T15:40:26.794Z,916.00
2019-03-13T15:41:26.949Z,908.00
2019-03-13T15:42:27.761Z,840.00
2019-03-13T15:43:27.345Z,876.00
2019-03-13T15:44:27.269Z,836.00
2019-03-13T15:45:27.763Z,980.00
2019-03-13T15:46:28.149Z,1008.00
2019-03-13T15:47:28.400Z,1032.00
2019-03-13T15:48:28.051Z,984.00
2019-03-13T15:49:28.021Z,1248.00
2019-03-13T15:50:28.453Z,1476.00
2019-03-13T15:51:28.314Z,1196.00
2019-03-13T15:52:28.685Z,1124.00
2019-03-13T15:53:30.267Z,1016.00
2019-03-13T15:54:29.054Z,836.00
2019-03-13T15:55:29.111Z,952.00
2019-03-13T15:56:29.235Z,936.00
2019-03-13T15:57:29.407Z,792.00
2019-03-13T15:58:29.725Z,556.00
2019-03-13T15:59:30.090Z,504.00
2019-03-13T16:00:30.331Z,412.00
2019-03-13T16:01:30.742Z,384.00
2019-03-13T16:02:30.275Z,484.00
2019-03-13T16:03:30.464Z,652.00
2019-03-13T16:04:31.739Z,668.00
2019-03-13T16:05:32.363Z,632.00
2019-03-13T16:06:32.259Z,704.00
2019-03-13T16:07:32.634Z,824.00
2019-03-13T16:08:31.572Z,904.00
2019-03-13T16:09:31.180Z,636.00
2019-03-13T16:10:31.793Z,608.00
2019-03-13T16:11:31.614Z,664.00
2019-03-13T16:12:31.746Z,676.00
2019-03-13T16:13:31.878Z,520.00
2019-03-13T16:14:31.942Z,456.00
2019-03-13T16:15:32.348Z,372.00
2019-03-13T16:16:32.883Z,440.00
2019-03-13T16:17:32.684Z,400.00
2019-03-13T16:18:33.188Z,416.00
2019-03-13T16:19:33.291Z,632.00
2019-03-13T16:20:32.924Z,644.00
2019-03-13T16:21:33.667Z,468.00
2019-03-13T16:22:33.349Z,392.00
2019-03-13T16:23:33.490Z,376.00
2019-03-13T16:24:33.557Z,332.00
2019-03-13T16:25:33.943Z,304.00
2019-03-13T16:26:33.764Z,268.00
2019-03-13T16:27:34.050Z,248.00
2019-03-13T16:28:34.149Z,260.00
2019-03-13T16:29:34.542Z,284.00
2019-03-13T16:30:34.545Z,264.00
2019-03-13T16:31:34.641Z,324.00
2019-03-13T16:32:43.471Z,352.00
2019-03-13T16:33:34.924Z,328.00
2019-03-13T16:34:35.210Z,284.00
2019-03-13T16:35:35.451Z,276.00
2019-03-13T16:36:35.396Z,356.00
2019-03-13T16:37:35.955Z,448.00
2019-03-13T16:38:35.669Z,548.00
2019-03-13T16:39:35.847Z,516.00
2019-03-13T16:40:36.053Z,480.00
2019-03-13T16:41:36.251Z,424.00
2019-03-13T16:42:36.505Z,432.00
2019-03-13T16:43:36.743Z,388.00
2019-03-13T16:44:36.868Z,288.00
2019-03-13T16:45:36.999Z,200.00
2019-03-13T16:46:37.137Z,212.00
2019-03-13T16:47:37.450Z,228.00
2019-03-13T16:48:37.521Z,268.00
2019-03-13T16:49:39.191Z,208.00
2019-03-13T16:50:37.823Z,140.00
2019-03-13T16:51:38.026Z,152.00
2019-03-13T16:52:38.450Z,168.00
2019-03-13T16:53:38.492Z,172.00
2019-03-13T16:54:38.719Z,176.00
2019-03-13T16:55:38.891Z,144.00
2019-03-13T16:56:38.864Z,116.00
2019-03-13T16:57:39.034Z,72.00
2019-03-13T16:58:39.101Z,56.00
2019-03-13T16:59:39.322Z,52.00
2019-03-13T17:00:39.476Z,60.00
2019-03-13T17:01:39.686Z,68.00
2019-03-13T17:02:39.832Z,64.00
2019-03-13T17:03:40.040Z,72.00
2019-03-13T17:04:40.114Z,68.00
2019-03-13T17:05:40.321Z,68.00
2019-03-13T17:06:40.707Z,92.00
2019-03-13T17:07:40.953Z,96.00
2019-03-13T17:08:41.489Z,116.00
2019-03-13T17:09:41.153Z,100.00
2019-03-13T17:10:41.421Z,104.00
2019-03-13T17:11:41.284Z,72.00
2019-03-13T17:12:41.515Z,64.00
2019-03-13T17:13:41.677Z,48.00
2019-03-13T17:14:41.792Z,32.00
2019-03-13T17:15:41.951Z,24.00
2019-03-13T17:16:42.143Z,16.00
2019-03-13T17:17:42.199Z,12.00
2019-03-13T17:18:42.366Z,12.00
2019-03-13T17:19:42.600Z,8.00
2019-03-13T17:20:42.656Z,4.00
2019-03-13T17:21:42.885Z,8.00
2019-03-13T17:22:43.487Z,4.00
2019-03-13T17:23:43.706Z,0.00
2019-03-13T17:24:43.244Z,0.00
2019-03-13T17:25:43.886Z,4.00
2019-03-13T17:26:43.726Z,4.00
2019-03-13T17:27:43.771Z,4.00
2019-03-13T17:28:43.995Z,4.00
2019-03-13T17:29:59.270Z,4.00
2019-03-13T17:30:45.075Z,4.00
2019-03-13T17:32:03.107Z,4.00
2019-03-13T17:32:44.910Z,0.00
2019-03-13T17:33:45.024Z,0.00
2019-03-13T17:34:45.626Z,4.00
2019-03-13T17:35:45.131Z,4.00
2019-03-13T17:36:45.244Z,0.00
2019-03-13T17:37:45.534Z,4.00
2019-03-13T17:38:45.507Z,0.00
2019-03-13T17:39:45.767Z,0.00
2019-03-13T17:40:46.293Z,4.00
2019-03-13T17:41:46.907Z,0.00
2019-03-13T17:42:46.290Z,0.00
2019-03-13T17:43:46.653Z,0.00
2019-03-13T17:44:46.467Z,0.00
2019-03-13T17:45:47.003Z,0.00
2019-03-13T17:46:47.422Z,0.00
2019-03-13T17:47:47.534Z,0.00
2019-03-13T17:48:47.445Z,0.00
2019-03-13T17:49:47.358Z,0.00
2019-03-13T17:50:47.509Z,0.00
2019-03-13T17:51:48.584Z,0.00
2019-03-13T17:52:47.627Z,0.00
2019-03-13T17:53:47.946Z,0.00
2019-03-13T17:54:51.880Z,0.00
2019-03-13T17:55:48.855Z,0.00
2019-03-13T17:56:48.440Z,0.00
2019-03-13T17:57:49.360Z,0.00
2019-03-13T17:58:49.477Z,0.00
2019-03-13T17:59:48.898Z,0.00
2019-03-13T18:00:49.305Z,0.00
2019-03-13T18:01:49.258Z,0.00
2019-03-13T18:02:49.336Z,0.00
2019-03-13T18:03:50.057Z,0.00
2019-03-13T18:04:49.560Z,0.00
2019-03-13T18:05:49.805Z,0.00
2019-03-13T18:06:49.896Z,0.00
2019-03-13T18:07:50.421Z,0.00
2019-03-13T18:08:50.596Z,0.00
2019-03-13T18:09:50.589Z,0.00
2019-03-13T18:10:50.648Z,0.00
2019-03-13T18:11:51.160Z,0.00
2019-03-13T18:12:51.153Z,0.00
2019-03-13T18:13:51.267Z,0.00
2019-03-13T18:14:51.529Z,0.00
2019-03-13T18:15:52.870Z,0.00
2019-03-13T18:16:52.126Z,0.00
2019-03-13T18:17:52.486Z,0.00
2019-03-13T18:18:51.993Z,0.00
2019-03-13T18:19:52.667Z,0.00
2019-03-13T18:20:52.099Z,0.00
2019-03-13T18:21:52.183Z,0.00
2019-03-13T18:22:52.440Z,0.00
2019-03-13T18:23:52.557Z,0.00
2019-03-13T18:24:52.969Z,0.00
2019-03-13T18:25:52.982Z,0.00
2019-03-13T18:26:53.291Z,0.00
2019-03-13T18:27:53.414Z,0.00
2019-03-13T18:28:54.324Z,0.00
2019-03-13T18:29:54.061Z,0.00
2019-03-13T18:30:53.740Z,0.00
2019-03-13T18:31:55.274Z,0.00
2019-03-13T18:32:54.129Z,0.00
2019-03-13T18:33:54.389Z,0.00
2019-03-13T18:34:54.630Z,0.00
2019-03-13T18:35:55.048Z,0.00
2019-03-13T18:36:56.200Z,0.00
2019-03-13T18:37:58.334Z,0.00
2019-03-13T18:38:55.420Z,0.00
2019-03-13T18:39:55.836Z,0.00
2019-03-13T18:40:55.795Z,0.00
2019-03-13T18:41:55.814Z,0.00
2019-03-13T18:42:55.976Z,0.00
2019-03-13T18:43:56.057Z,0.00
2019-03-13T18:44:56.700Z,0.00
2019-03-13T18:45:56.500Z,0.00
2019-03-13T18:46:56.399Z,0.00
2019-03-13T18:47:56.565Z,0.00
2019-03-13T18:48:58.782Z,0.00
2019-03-13T18:49:57.192Z,0.00
2019-03-13T18:50:57.126Z,0.00
2019-03-13T18:51:57.456Z,0.00
2019-03-13T18:52:57.525Z,0.00
2019-03-13T18:53:57.513Z,0.00
2019-03-13T18:54:58.028Z,0.00
2019-03-13T18:55:57.910Z,0.00
2019-03-13T18:56:57.974Z,0.00
2019-03-13T18:57:59.256Z,0.00
2019-03-13T18:58:58.677Z,0.00
2019-03-13T18:59:58.658Z,0.00
2019-03-13T19:00:58.840Z,0.00
2019-03-13T19:01:58.888Z,0.00
2019-03-13T19:02:59.358Z,0.00
2019-03-13T19:03:59.373Z,0.00
2019-03-13T19:05:01.561Z,0.00
2019-03-13T19:06:01.495Z,0.00
2019-03-13T19:07:00.302Z,0.00
2019-03-13T19:07:59.837Z,0.00
2019-03-13T19:09:00.373Z,0.00
2019-03-13T19:10:00.500Z,0.00